Time,TemperatureF,DewpointF,PressureIn,WindDirection,WindDirectionDegrees,WindSpeedMPH,WindSpeedGustMPH,Humidity,HourlyPrecipIn,Conditions,Clouds,dailyrainin,SoftwareType,DateUTC
2013-05-19 00:01:00,47.0,28.0,29.78,WNW,284,4.0,5.0,47,0.00,,,0.04,,2013-05-19 07:01:00,
2013-05-19 00:11:00,47.0,28.0,29.78,WNW,284,4.0,5.0,47,0.00,,,0.04,,2013-05-19 07:11:00,
2013-05-19 00:21:00,47.0,28.0,29.79,WNW,284,8.0,10.0,47,0.00,,,0.03,,2013-05-19 07:21:00,
2013-05-19 00:31:00,47.0,28.0,29.78,West,280,6.0,9.0,47,0.00,,,0.03,,2013-05-19 07:31:00,
2013-05-19 00:41:00,47.0,28.0,29.78,West,280,6.0,9.0,47,0.00,,,0.03,,2013-05-19 07:41:00,
2013-05-19 00:52:00,47.0,28.0,29.78,NNW,340,2.0,8.0,48,0.00,,,0.03,,2013-05-19 07:52:00,
2013-05-19 01:01:00,46.0,28.0,29.79,ENE,76,2.0,7.0,49,0.00,,,0.03,,2013-05-19 08:01:00,
2013-05-19 01:11:00,46.0,28.0,29.79,ENE,76,2.0,7.0,49,0.00,,,0.03,,2013-05-19 08:11:00,
2013-05-19 01:21:00,44.0,27.0,29.79,SSW,194,0.0,1.0,51,0.00,,,0.03,,2013-05-19 08:21:00,
2013-05-19 01:31:00,44.0,28.0,29.79,SSW,203,0.0,1.0,52,0.00,,,0.03,,2013-05-19 08:31:00,
2013-05-19 01:41:00,44.0,28.0,29.79,SSW,203,0.0,1.0,52,0.00,,,0.03,,2013-05-19 08:41:00,
2013-05-19 01:52:00,42.0,26.0,29.78,SE,133,0.0,1.0,53,0.00,,,0.03,,2013-05-19 08:52:00,
2013-05-19 02:01:00,42.0,27.0,29.78,West,271,1.0,1.0,54,0.00,,,0.03,,2013-05-19 09:01:00,
2013-05-19 02:11:00,42.0,27.0,29.78,West,271,1.0,1.0,54,0.00,,,0.03,,2013-05-19 09:11:00,
2013-05-19 02:21:00,41.0,26.0,29.78,ESE,113,0.0,0.0,55,0.00,,,0.03,,2013-05-19 09:21:00,
2013-05-19 02:32:00,41.0,27.0,29.77,South,178,0.0,0.0,56,0.00,,,0.03,,2013-05-19 09:32:00,
2013-05-19 02:42:00,41.0,27.0,29.77,South,178,0.0,0.0,56,0.00,,,0.03,,2013-05-19 09:42:00,
2013-05-19 02:53:00,40.0,26.0,29.78,East,83,1.0,2.0,58,0.00,,,0.03,,2013-05-19 09:53:00,
2013-05-19 03:02:00,40.0,27.0,29.78,SSE,164,2.0,3.0,60,0.00,,,0.03,,2013-05-19 10:02:00,
2013-05-19 03:12:00,40.0,27.0,29.78,North,0,0.0,1.0,60,0.00,,,0.03,,2013-05-19 10:12:00,
2013-05-19 03:22:00,40.0,27.0,29.78,North,0,0.0,1.0,60,0.00,,,0.03,,2013-05-19 10:22:00,
2013-05-19 03:32:00,40.0,28.0,29.78,NE,41,1.0,2.0,61,0.00,,,0.03,,2013-05-19 10:32:00,
2013-05-19 03:42:00,40.0,28.0,29.78,NE,41,1.0,2.0,61,0.00,,,0.03,,2013-05-19 10:42:00,
2013-05-19 03:52:00,41.0,29.0,29.78,WSW,237,1.0,1.0,62,0.00,,,0.03,,2013-05-19 10:52:00,
2013-05-19 04:02:00,41.0,29.0,29.78,SSW,213,2.0,3.0,63,0.00,,,0.03,,2013-05-19 11:02:00,
2013-05-19 04:11:00,41.0,29.0,29.78,SSW,213,2.0,3.0,63,0.00,,,0.03,,2013-05-19 11:11:00,
2013-05-19 04:21:00,42.0,30.0,29.79,North,352,2.0,5.0,62,0.00,,,0.03,,2013-05-19 11:21:00,
2013-05-19 04:32:00,43.0,30.0,29.79,NNE,16,1.0,3.0,61,0.00,,,0.03,,2013-05-19 11:32:00,
2013-05-19 04:42:00,43.0,30.0,29.79,NNE,16,1.0,3.0,61,0.00,,,0.03,,2013-05-19 11:42:00,
2013-05-19 04:52:00,43.0,32.0,29.79,SSW,207,1.0,3.0,65,0.01,,,0.04,,2013-05-19 11:52:00,
2013-05-19 05:01:00,42.0,32.0,29.79,SSW,193,1.0,3.0,68,0.01,,,0.04,,2013-05-19 12:01:00,
2013-05-19 05:11:00,42.0,32.0,29.79,SSW,193,1.0,3.0,68,0.01,,,0.04,,2013-05-19 12:11:00,
2013-05-19 05:21:00,42.0,33.0,29.79,SSE,158,0.0,1.0,70,0.01,,,0.04,,2013-05-19 12:21:00,
2013-05-19 05:31:00,42.0,33.0,29.79,North,0,0.0,0.0,70,0.01,,,0.04,,2013-05-19 12:31:00,
2013-05-19 05:41:00,42.0,33.0,29.79,North,0,0.0,0.0,70,0.01,,,0.04,,2013-05-19 12:41:00,
2013-05-19 05:52:00,42.0,34.0,29.80,SE,131,0.0,0.0,73,0.02,,,0.06,,2013-05-19 12:52:00,
2013-05-19 06:01:00,42.0,34.0,29.80,SSW,203,0.0,1.0,73,0.02,,,0.06,,2013-05-19 13:01:00,
2013-05-19 06:11:00,42.0,34.0,29.80,SSW,203,0.0,1.0,73,0.02,,,0.06,,2013-05-19 13:11:00,
2013-05-19 06:21:00,42.0,34.0,29.80,NNW,336,1.0,3.0,74,0.02,,,0.06,,2013-05-19 13:21:00,
2013-05-19 06:31:00,42.0,34.0,29.81,NNW,337,3.0,8.0,73,0.02,,,0.06,,2013-05-19 13:31:00,
2013-05-19 06:42:00,42.0,34.0,29.81,NNW,337,3.0,8.0,73,0.02,,,0.06,,2013-05-19 13:42:00,
2013-05-19 06:52:00,42.0,34.0,29.81,WNW,300,5.0,9.0,74,0.00,,,0.06,,2013-05-19 13:52:00,
2013-05-19 07:02:00,41.0,33.0,29.82,WNW,287,6.0,9.0,74,0.00,,,0.06,,2013-05-19 14:02:00,
2013-05-19 07:11:00,41.0,33.0,29.82,WNW,287,6.0,9.0,74,0.00,,,0.06,,2013-05-19 14:11:00,
2013-05-19 07:21:00,40.0,33.0,29.82,North,359,3.0,5.0,75,0.02,,,0.07,,2013-05-19 14:21:00,
2013-05-19 07:31:00,39.0,32.0,29.82,North,0,1.0,2.0,77,0.02,,,0.07,,2013-05-19 14:31:00,
2013-05-19 07:41:00,39.0,32.0,29.82,North,0,1.0,2.0,77,0.02,,,0.07,,2013-05-19 14:41:00,
2013-05-19 07:52:00,39.0,32.0,29.82,North,0,1.0,2.0,77,0.02,,,0.07,,2013-05-19 14:52:00,
2013-05-19 08:01:00,39.0,33.0,29.84,NNW,342,2.0,5.0,79,0.04,,,0.09,,2013-05-19 15:01:00,
2013-05-19 08:11:00,39.0,33.0,29.84,NNW,342,2.0,5.0,79,0.04,,,0.09,,2013-05-19 15:11:00,
2013-05-19 08:21:00,38.0,31.0,29.84,ENE,68,0.0,1.0,76,0.05,,,0.12,,2013-05-19 15:21:00,
2013-05-19 08:32:00,38.0,31.0,29.84,West,266,1.0,1.0,77,0.06,,,0.13,,2013-05-19 15:32:00,
2013-05-19 08:42:00,38.0,31.0,29.84,West,266,1.0,1.0,77,0.06,,,0.13,,2013-05-19 15:42:00,
2013-05-19 08:53:00,38.0,31.0,29.85,SE,135,0.0,1.0,77,0.10,,,0.17,,2013-05-19 15:53:00,
2013-05-19 09:03:00,38.0,32.0,29.84,SW,226,3.0,4.0,79,0.09,,,0.18,,2013-05-19 16:03:00,
2013-05-19 09:12:00,38.0,32.0,29.84,SW,226,3.0,4.0,79,0.09,,,0.18,,2013-05-19 16:12:00,
2013-05-19 09:23:00,40.0,35.0,29.84,North,356,2.0,9.0,82,0.05,,,0.18,,2013-05-19 16:23:00,
2013-05-19 09:32:00,42.0,36.0,29.84,NNE,15,2.0,3.0,80,0.05,,,0.18,,2013-05-19 16:32:00,
2013-05-19 09:42:00,42.0,36.0,29.84,NNE,15,2.0,3.0,80,0.05,,,0.18,,2013-05-19 16:42:00,
2013-05-19 09:52:00,44.0,38.0,29.84,NE,44,5.0,6.0,78,0.01,,,0.18,,2013-05-19 16:52:00,
2013-05-19 10:01:00,44.0,38.0,29.84,NE,44,5.0,6.0,78,0.01,,,0.18,,2013-05-19 17:01:00,
2013-05-19 10:12:00,44.0,38.0,29.84,NE,44,5.0,6.0,78,0.01,,,0.18,,2013-05-19 17:12:00,
2013-05-19 10:22:00,46.0,39.0,29.83,NE,45,0.0,4.0,75,0.00,,,0.18,,2013-05-19 17:22:00,
2013-05-19 10:31:00,46.0,38.0,29.83,NNE,13,5.0,9.0,73,0.00,,,0.18,,2013-05-19 17:31:00,
2013-05-19 10:42:00,46.0,38.0,29.83,NNE,13,5.0,9.0,73,0.00,,,0.18,,2013-05-19 17:42:00,
2013-05-19 10:52:00,48.0,38.0,29.83,North,10,5.0,13.0,67,0.00,,,0.18,,2013-05-19 17:52:00,
2013-05-19 11:02:00,48.0,38.0,29.83,NNE,17,2.0,10.0,68,0.00,,,0.18,,2013-05-19 18:02:00,
2013-05-19 11:12:00,48.0,38.0,29.83,NNE,17,2.0,10.0,68,0.00,,,0.18,,2013-05-19 18:12:00,
2013-05-19 11:21:00,50.0,38.0,29.82,NNE,32,6.0,7.0,64,0.00,,,0.18,,2013-05-19 18:21:00,
2013-05-19 11:31:00,49.0,37.0,29.83,North,1,5.0,14.0,64,0.00,,,0.18,,2013-05-19 18:31:00,
2013-05-19 11:42:00,49.0,37.0,29.83,North,1,5.0,14.0,64,0.00,,,0.18,,2013-05-19 18:42:00,
2013-05-19 11:52:00,49.0,37.0,29.83,NNW,334,2.0,11.0,64,0.00,,,0.18,,2013-05-19 18:52:00,
2013-05-19 12:01:00,50.0,38.0,29.82,NE,48,5.0,11.0,62,0.00,,,0.18,,2013-05-19 19:01:00,
2013-05-19 12:11:00,50.0,38.0,29.82,NE,48,5.0,11.0,62,0.00,,,0.18,,2013-05-19 19:11:00,
2013-05-19 12:21:00,50.0,38.0,29.83,NE,34,4.0,9.0,63,0.00,,,0.18,,2013-05-19 19:21:00,
2013-05-19 12:31:00,50.0,38.0,29.82,NE,42,5.0,9.0,64,0.00,,,0.18,,2013-05-19 19:31:00,
2013-05-19 12:41:00,50.0,38.0,29.82,NE,42,5.0,9.0,64,0.00,,,0.18,,2013-05-19 19:41:00,
2013-05-19 12:52:00,50.0,37.0,29.82,NE,44,2.0,6.0,61,0.00,,,0.18,,2013-05-19 19:52:00,
2013-05-19 13:02:00,52.0,38.0,29.82,NNE,12,7.0,9.0,58,0.00,,,0.18,,2013-05-19 20:02:00,
2013-05-19 13:11:00,52.0,38.0,29.82,NNE,12,7.0,9.0,58,0.00,,,0.18,,2013-05-19 20:11:00,
2013-05-19 13:21:00,53.0,38.0,29.81,NNE,33,4.0,11.0,56,0.00,,,0.18,,2013-05-19 20:21:00,
2013-05-19 13:31:00,54.0,37.0,29.81,NNE,15,5.0,10.0,53,0.00,,,0.18,,2013-05-19 20:31:00,
2013-05-19 13:41:00,54.0,37.0,29.81,NNE,15,5.0,10.0,53,0.00,,,0.18,,2013-05-19 20:41:00,
2013-05-19 13:52:00,56.0,33.0,29.80,NNW,344,5.0,8.0,41,0.00,,,0.18,,2013-05-19 20:52:00,
2013-05-19 14:01:00,57.0,34.0,29.80,North,354,4.0,7.0,41,0.00,,,0.18,,2013-05-19 21:01:00,
2013-05-19 14:11:00,57.0,34.0,29.80,North,354,4.0,7.0,41,0.00,,,0.18,,2013-05-19 21:11:00,
2013-05-19 14:22:00,58.0,34.0,29.80,NNE,20,10.0,17.0,41,0.00,,,0.18,,2013-05-19 21:22:00,
2013-05-19 14:32:00,55.0,35.0,29.81,NNE,22,9.0,14.0,46,0.00,,,0.18,,2013-05-19 21:32:00,
2013-05-19 14:42:00,55.0,35.0,29.81,NNE,22,9.0,14.0,46,0.00,,,0.18,,2013-05-19 21:42:00,
2013-05-19 14:53:00,54.0,34.0,29.82,NNE,32,9.0,15.0,46,0.00,,,0.18,,2013-05-19 21:53:00,
2013-05-19 15:02:00,53.0,35.0,29.82,North,7,10.0,12.0,51,0.00,,,0.18,,2013-05-19 22:02:00,
2013-05-19 15:12:00,53.0,35.0,29.82,North,7,10.0,12.0,51,0.00,,,0.18,,2013-05-19 22:12:00,
2013-05-19 15:22:00,51.0,36.0,29.82,NNE,23,6.0,14.0,57,0.00,,,0.18,,2013-05-19 22:22:00,
2013-05-19 15:33:00,50.0,35.0,29.82,NNE,28,1.0,13.0,57,0.00,,,0.18,,2013-05-19 22:33:00,
2013-05-19 15:42:00,50.0,35.0,29.82,NNE,28,1.0,13.0,57,0.00,,,0.18,,2013-05-19 22:42:00,
2013-05-19 15:53:00,53.0,36.0,29.81,NNE,24,5.0,8.0,52,0.00,,,0.18,,2013-05-19 22:53:00,
2013-05-19 16:02:00,52.0,36.0,29.82,NNE,31,4.0,10.0,54,0.00,,,0.18,,2013-05-19 23:02:00,
2013-05-19 16:11:00,52.0,36.0,29.82,NNE,31,4.0,10.0,54,0.00,,,0.18,,2013-05-19 23:11:00,
2013-05-19 16:21:00,50.0,37.0,29.82,NNE,18,6.0,10.0,60,0.02,,,0.20,,2013-05-19 23:21:00,
2013-05-19 16:31:00,49.0,37.0,29.82,NNE,27,6.0,10.0,63,0.02,,,0.20,,2013-05-19 23:31:00,
2013-05-19 16:42:00,49.0,37.0,29.82,NE,42,4.0,9.0,62,0.02,,,0.20,,2013-05-19 23:42:00,
2013-05-19 16:52:00,49.0,37.0,29.82,NE,42,4.0,9.0,62,0.02,,,0.20,,2013-05-19 23:52:00,
2013-05-19 17:01:00,49.0,37.0,29.82,NW,309,1.0,8.0,63,0.02,,,0.20,,2013-05-20 00:01:00,
2013-05-19 17:11:00,49.0,37.0,29.82,NW,309,1.0,8.0,63,0.02,,,0.20,,2013-05-20 00:11:00,
2013-05-19 17:21:00,50.0,38.0,29.82,WSW,250,1.0,3.0,63,0.00,,,0.20,,2013-05-20 00:21:00,
2013-05-19 17:31:00,50.0,37.0,29.82,SW,222,0.0,1.0,61,0.00,,,0.20,,2013-05-20 00:31:00,
2013-05-19 17:41:00,50.0,37.0,29.82,SW,222,0.0,1.0,61,0.00,,,0.20,,2013-05-20 00:41:00,
2013-05-19 17:52:00,52.0,39.0,29.81,SW,228,2.0,5.0,61,0.00,,,0.20,,2013-05-20 00:52:00,
2013-05-19 18:01:00,52.0,38.0,29.81,NNE,31,1.0,5.0,58,0.00,,,0.20,,2013-05-20 01:01:00,
2013-05-19 18:11:00,52.0,38.0,29.81,NNE,31,1.0,5.0,58,0.00,,,0.20,,2013-05-20 01:11:00,
2013-05-19 18:21:00,50.0,36.0,29.82,NE,39,2.0,6.0,58,0.00,,,0.20,,2013-05-20 01:21:00,
2013-05-19 18:31:00,50.0,36.0,29.82,North,2,4.0,6.0,59,0.00,,,0.20,,2013-05-20 01:31:00,
2013-05-19 18:41:00,50.0,36.0,29.82,North,2,4.0,6.0,59,0.00,,,0.20,,2013-05-20 01:41:00,
2013-05-19 18:52:00,50.0,36.0,29.82,North,11,2.0,4.0,59,0.00,,,0.20,,2013-05-20 01:52:00,
2013-05-19 19:01:00,49.0,36.0,29.82,NNW,338,2.0,2.0,60,0.00,,,0.20,,2013-05-20 02:01:00,
2013-05-19 19:11:00,49.0,36.0,29.82,NNW,338,2.0,2.0,60,0.00,,,0.20,,2013-05-20 02:11:00,
2013-05-19 19:21:00,49.0,35.0,29.82,North,351,1.0,2.0,58,0.00,,,0.18,,2013-05-20 02:21:00,
2013-05-19 19:31:00,49.0,34.0,29.82,NNE,29,1.0,4.0,57,0.00,,,0.18,,2013-05-20 02:31:00,
2013-05-19 19:42:00,49.0,34.0,29.82,NNE,29,1.0,4.0,57,0.00,,,0.18,,2013-05-20 02:42:00,
2013-05-19 19:51:00,48.0,34.0,29.83,North,352,0.0,3.0,58,0.00,,,0.18,,2013-05-20 02:51:00,
2013-05-19 20:01:00,48.0,35.0,29.83,SSE,158,0.0,1.0,60,0.00,,,0.18,,2013-05-20 03:01:00,
2013-05-19 20:11:00,47.0,35.0,29.84,NE,54,1.0,2.0,62,0.00,,,0.18,,2013-05-20 03:11:00,
2013-05-19 20:21:00,47.0,35.0,29.84,NE,54,1.0,2.0,62,0.00,,,0.18,,2013-05-20 03:21:00,
2013-05-19 20:33:00,46.0,33.0,29.84,NNE,30,3.0,4.0,60,0.00,,,0.18,,2013-05-20 03:33:00,
2013-05-19 20:42:00,46.0,33.0,29.85,SSW,203,0.0,1.0,61,0.00,,,0.18,,2013-05-20 03:42:00,
2013-05-19 20:52:00,46.0,33.0,29.85,SSW,203,0.0,1.0,61,0.00,,,0.18,,2013-05-20 03:52:00,
2013-05-19 21:02:00,45.0,33.0,29.85,SE,143,1.0,1.0,63,0.00,,,0.18,,2013-05-20 04:02:00,
2013-05-19 21:12:00,44.0,33.0,29.85,ESE,102,1.0,1.0,64,0.00,,,0.18,,2013-05-20 04:12:00,
2013-05-19 21:22:00,44.0,33.0,29.85,ESE,102,1.0,1.0,64,0.00,,,0.18,,2013-05-20 04:22:00,
2013-05-19 21:33:00,43.0,32.0,29.86,ESE,121,1.0,2.0,66,0.00,,,0.18,,2013-05-20 04:33:00,
2013-05-19 21:42:00,43.0,32.0,29.86,ESE,121,1.0,2.0,66,0.00,,,0.18,,2013-05-20 04:42:00,
2013-05-19 21:52:00,42.0,32.0,29.86,ESE,122,1.0,1.0,67,0.00,,,0.18,,2013-05-20 04:52:00,
2013-05-19 22:02:00,41.0,31.0,29.86,SSE,161,1.0,2.0,67,0.00,,,0.18,,2013-05-20 05:02:00,
2013-05-19 22:11:00,41.0,31.0,29.86,West,269,1.0,2.0,67,0.00,,,0.18,,2013-05-20 05:11:00,
2013-05-19 22:21:00,41.0,31.0,29.86,West,269,1.0,2.0,67,0.00,,,0.18,,2013-05-20 05:21:00,
2013-05-19 22:32:00,41.0,29.0,29.86,NNW,341,2.0,4.0,61,0.00,,,0.18,,2013-05-20 05:32:00,
2013-05-19 22:42:00,41.0,29.0,29.86,NNW,341,2.0,4.0,61,0.00,,,0.18,,2013-05-20 05:42:00,
2013-05-19 22:52:00,43.0,28.0,29.86,NW,307,2.0,10.0,54,0.00,,,0.18,,2013-05-20 05:52:00,
2013-05-19 23:01:00,43.0,27.0,29.86,West,264,1.0,5.0,53,0.00,,,0.18,,2013-05-20 06:01:00,
2013-05-19 23:11:00,43.0,27.0,29.86,NNW,329,1.0,6.0,53,0.00,,,0.18,,2013-05-20 06:11:00,
2013-05-19 23:21:00,43.0,27.0,29.86,NNW,329,1.0,6.0,53,0.00,,,0.18,,2013-05-20 06:21:00,
2013-05-19 23:31:00,43.0,27.0,29.86,WNW,282,3.0,6.0,53,0.00,,,0.18,,2013-05-20 06:31:00,
2013-05-19 23:41:00,43.0,27.0,29.86,WNW,282,3.0,6.0,53,0.00,,,0.18,,2013-05-20 06:41:00,
2013-05-19 23:52:00,43.0,27.0,29.86,West,279,2.0,5.0,52,0.00,,,0.18,,2013-05-20 06:52:00,